sensor_id;sensor_type;location;lat;lon;timestamp;P1;durP1;ratioP1;P2;durP2;ratioP2
7255;SDS011;3669;49.200;9.242;2023-06-22T00:01:13;5.13;;;4.63;;
7255;SDS011;3669;49.200;9.242;2023-06-22T00:03:40;5.40;;;4.90;;
7255;SDS011;3669;49.200;9.242;2023-06-22T00:06:06;13.95;;;13.13;;
7255;SDS011;3669;49.200;9.242;2023-06-22T00:08:33;16.10;;;15.20;;
7255;SDS011;3669;49.200;9.242;2023-06-22T00:11:00;28.23;;;26.67;;
7255;SDS011;3669;49.200;9.242;2023-06-22T00:13:27;23.15;;;21.90;;
7255;SDS011;3669;49.200;9.242;2023-06-22T00:15:54;16.48;;;15.55;;
7255;SDS011;3669;49.200;9.242;2023-06-22T00:18:21;13.27;;;12.45;;
7255;SDS011;3669;49.200;9.242;2023-06-22T00:20:57;18.70;;;17.63;;
7255;SDS011;3669;49.200;9.242;2023-06-22T00:23:24;22.50;;;21.33;;
7255;SDS011;3669;49.200;9.242;2023-06-22T00:25:50;16.80;;;15.88;;
7255;SDS011;3669;49.200;9.242;2023-06-22T00:28:18;5.80;;;5.35;;
7255;SDS011;3669;49.200;9.242;2023-06-22T00:30:44;4.75;;;4.22;;
7255;SDS011;3669;49.200;9.242;2023-06-22T00:33:11;5.18;;;4.65;;
7255;SDS011;3669;49.200;9.242;2023-06-22T00:35:39;5.30;;;4.68;;
7255;SDS011;3669;49.200;9.242;2023-06-22T00:38:07;5.50;;;4.70;;
7255;SDS011;3669;49.200;9.242;2023-06-22T00:40:34;4.75;;;4.35;;
7255;SDS011;3669;49.200;9.242;2023-06-22T00:43:01;4.88;;;4.38;;
7255;SDS011;3669;49.200;9.242;2023-06-22T00:45:28;4.68;;;4.28;;
7255;SDS011;3669;49.200;9.242;2023-06-22T00:47:58;4.93;;;4.20;;
7255;SDS011;3669;49.200;9.242;2023-06-22T00:50:26;5.10;;;4.60;;
7255;SDS011;3669;49.200;9.242;2023-06-22T00:52:55;4.95;;;4.40;;
7255;SDS011;3669;49.200;9.242;2023-06-22T00:55:22;5.43;;;4.43;;
7255;SDS011;3669;49.200;9.242;2023-06-22T00:57:51;4.90;;;4.50;;
7255;SDS011;3669;49.200;9.242;2023-06-22T01:00:23;4.78;;;4.38;;
7255;SDS011;3669;49.200;9.242;2023-06-22T01:02:51;4.93;;;4.53;;
7255;SDS011;3669;49.200;9.242;2023-06-22T01:05:21;5.30;;;4.80;;
7255;SDS011;3669;49.200;9.242;2023-06-22T01:07:55;5.40;;;4.80;;
7255;SDS011;3669;49.200;9.242;2023-06-22T01:10:32;5.00;;;4.60;;
7255;SDS011;3669;49.200;9.242;2023-06-22T01:13:07;5.03;;;4.53;;
7255;SDS011;3669;49.200;9.242;2023-06-22T01:15:36;4.45;;;4.05;;
7255;SDS011;3669;49.200;9.242;2023-06-22T01:18:06;4.97;;;4.57;;
7255;SDS011;3669;49.200;9.242;2023-06-22T01:20:35;4.88;;;4.47;;
7255;SDS011;3669;49.200;9.242;2023-06-22T01:25:43;5.38;;;4.25;;
7255;SDS011;3669;49.200;9.242;2023-06-22T01:30:45;5.70;;;4.65;;
7255;SDS011;3669;49.200;9.242;2023-06-22T01:33:13;5.63;;;5.13;;
7255;SDS011;3669;49.200;9.242;2023-06-22T01:35:41;5.20;;;4.70;;
7255;SDS011;3669;49.200;9.242;2023-06-22T01:38:08;5.38;;;4.88;;
7255;SDS011;3669;49.200;9.242;2023-06-22T01:40:36;5.03;;;4.60;;
7255;SDS011;3669;49.200;9.242;2023-06-22T01:43:03;5.30;;;4.90;;
7255;SDS011;3669;49.200;9.242;2023-06-22T01:45:30;6.10;;;4.82;;
7255;SDS011;3669;49.200;9.242;2023-06-22T01:47:57;5.53;;;5.03;;
7255;SDS011;3669;49.200;9.242;2023-06-22T01:50:25;5.70;;;4.55;;
7255;SDS011;3669;49.200;9.242;2023-06-22T01:52:52;5.43;;;4.93;;
7255;SDS011;3669;49.200;9.242;2023-06-22T01:55:18;32.15;;;30.50;;
7255;SDS011;3669;49.200;9.242;2023-06-22T01:57:45;6.47;;;4.82;;
7255;SDS011;3669;49.200;9.242;2023-06-22T02:00:14;5.43;;;4.88;;
7255;SDS011;3669;49.200;9.242;2023-06-22T02:03:01;5.85;;;4.95;;
7255;SDS011;3669;49.200;9.242;2023-06-22T02:05:31;7.20;;;5.45;;
7255;SDS011;3669;49.200;9.242;2023-06-22T02:08:09;5.30;;;4.90;;
7255;SDS011;3669;49.200;9.242;2023-06-22T02:10:38;5.38;;;4.88;;
7255;SDS011;3669;49.200;9.242;2023-06-22T02:13:07;4.82;;;4.45;;
7255;SDS011;3669;49.200;9.242;2023-06-22T02:15:36;5.10;;;4.63;;
7255;SDS011;3669;49.200;9.242;2023-06-22T02:18:03;5.45;;;4.82;;
7255;SDS011;3669;49.200;9.242;2023-06-22T02:20:30;7.80;;;7.20;;
7255;SDS011;3669;49.200;9.242;2023-06-22T02:22:57;5.20;;;4.78;;
7255;SDS011;3669;49.200;9.242;2023-06-22T02:25:24;5.93;;;5.35;;
7255;SDS011;3669;49.200;9.242;2023-06-22T02:27:52;5.45;;;4.78;;
7255;SDS011;3669;49.200;9.242;2023-06-22T02:30:19;4.65;;;4.25;;
7255;SDS011;3669;49.200;9.242;2023-06-22T02:32:46;6.70;;;4.97;;
7255;SDS011;3669;49.200;9.242;2023-06-22T02:35:13;5.18;;;4.78;;
7255;SDS011;3669;49.200;9.242;2023-06-22T02:37:40;5.90;;;4.65;;
7255;SDS011;3669;49.200;9.242;2023-06-22T02:40:07;5.60;;;5.10;;
7255;SDS011;3669;49.200;9.242;2023-06-22T02:42:35;5.45;;;4.95;;
7255;SDS011;3669;49.200;9.242;2023-06-22T02:45:02;5.30;;;4.80;;
7255;SDS011;3669;49.200;9.242;2023-06-22T02:47:29;5.45;;;4.95;;
7255;SDS011;3669;49.200;9.242;2023-06-22T02:49:56;5.80;;;5.18;;
7255;SDS011;3669;49.200;9.242;2023-06-22T02:52:23;5.35;;;4.85;;
7255;SDS011;3669;49.200;9.242;2023-06-22T02:54:50;5.40;;;5.00;;
7255;SDS011;3669;49.200;9.242;2023-06-22T02:57:17;5.90;;;5.38;;
7255;SDS011;3669;49.200;9.242;2023-06-22T02:59:44;5.50;;;5.00;;
7255;SDS011;3669;49.200;9.242;2023-06-22T03:02:11;5.07;;;4.65;;
7255;SDS011;3669;49.200;9.242;2023-06-22T03:04:38;5.60;;;5.05;;
7255;SDS011;3669;49.200;9.242;2023-06-22T03:07:06;5.80;;;5.30;;
7255;SDS011;3669;49.200;9.242;2023-06-22T03:09:48;13.48;;;12.60;;
7255;SDS011;3669;49.200;9.242;2023-06-22T03:12:17;5.82;;;5.25;;
7255;SDS011;3669;49.200;9.242;2023-06-22T03:14:50;5.60;;;5.10;;
7255;SDS011;3669;49.200;9.242;2023-06-22T03:17:17;5.20;;;4.70;;
7255;SDS011;3669;49.200;9.242;2023-06-22T03:19:44;6.40;;;5.03;;
7255;SDS011;3669;49.200;9.242;2023-06-22T03:22:11;5.35;;;4.85;;
7255;SDS011;3669;49.200;9.242;2023-06-22T03:24:40;5.20;;;4.78;;
7255;SDS011;3669;49.200;9.242;2023-06-22T03:27:07;5.97;;;5.38;;
7255;SDS011;3669;49.200;9.242;2023-06-22T03:29:34;5.97;;;5.35;;
7255;SDS011;3669;49.200;9.242;2023-06-22T03:32:01;5.50;;;5.00;;
7255;SDS011;3669;49.200;9.242;2023-06-22T03:34:30;5.60;;;5.10;;
7255;SDS011;3669;49.200;9.242;2023-06-22T03:36:59;5.50;;;5.00;;
7255;SDS011;3669;49.200;9.242;2023-06-22T03:39:26;5.68;;;5.18;;
7255;SDS011;3669;49.200;9.242;2023-06-22T03:41:53;13.40;;;12.70;;
7255;SDS011;3669;49.200;9.242;2023-06-22T03:44:19;21.77;;;20.45;;
7255;SDS011;3669;49.200;9.242;2023-06-22T03:46:46;23.55;;;22.20;;
7255;SDS011;3669;49.200;9.242;2023-06-22T03:49:13;32.30;;;30.35;;
7255;SDS011;3669;49.200;9.242;2023-06-22T03:51:40;25.65;;;24.17;;
7255;SDS011;3669;49.200;9.242;2023-06-22T03:54:07;17.02;;;15.95;;
7255;SDS011;3669;49.200;9.242;2023-06-22T03:56:35;11.55;;;10.90;;
7255;SDS011;3669;49.200;9.242;2023-06-22T03:59:02;8.50;;;7.80;;
7255;SDS011;3669;49.200;9.242;2023-06-22T04:01:29;5.90;;;5.38;;
7255;SDS011;3669;49.200;9.242;2023-06-22T04:03:56;6.60;;;5.38;;
7255;SDS011;3669;49.200;9.242;2023-06-22T04:06:23;5.32;;;4.82;;
7255;SDS011;3669;49.200;9.242;2023-06-22T04:08:50;6.00;;;5.40;;
7255;SDS011;3669;49.200;9.242;2023-06-22T04:11:17;5.50;;;4.82;;
7255;SDS011;3669;49.200;9.242;2023-06-22T04:13:44;5.70;;;5.10;;
7255;SDS011;3669;49.200;9.242;2023-06-22T04:16:11;6.50;;;5.40;;
7255;SDS011;3669;49.200;9.242;2023-06-22T04:18:38;5.85;;;5.28;;
7255;SDS011;3669;49.200;9.242;2023-06-22T04:21:05;5.53;;;5.03;;
7255;SDS011;3669;49.200;9.242;2023-06-22T04:23:32;5.65;;;4.97;;
7255;SDS011;3669;49.200;9.242;2023-06-22T04:25:59;6.22;;;5.30;;
7255;SDS011;3669;49.200;9.242;2023-06-22T04:28:26;6.00;;;5.40;;
7255;SDS011;3669;49.200;9.242;2023-06-22T04:30:53;5.72;;;5.10;;
7255;SDS011;3669;49.200;9.242;2023-06-22T04:33:24;5.97;;;5.45;;
7255;SDS011;3669;49.200;9.242;2023-06-22T04:35:51;6.15;;;5.55;;
7255;SDS011;3669;49.200;9.242;2023-06-22T04:38:18;5.30;;;4.80;;
7255;SDS011;3669;49.200;9.242;2023-06-22T04:40:47;6.15;;;5.55;;
7255;SDS011;3669;49.200;9.242;2023-06-22T04:43:14;5.82;;;5.25;;
7255;SDS011;3669;49.200;9.242;2023-06-22T04:45:41;6.30;;;5.68;;
7255;SDS011;3669;49.200;9.242;2023-06-22T04:48:08;6.50;;;5.80;;
7255;SDS011;3669;49.200;9.242;2023-06-22T04:50:36;6.32;;;5.72;;
7255;SDS011;3669;49.200;9.242;2023-06-22T04:54:19;22.50;;;21.27;;
7255;SDS011;3669;49.200;9.242;2023-06-22T04:56:46;18.33;;;17.13;;
7255;SDS011;3669;49.200;9.242;2023-06-22T04:59:14;9.05;;;8.35;;
7255;SDS011;3669;49.200;9.242;2023-06-22T05:01:43;10.88;;;10.00;;
7255;SDS011;3669;49.200;9.242;2023-06-22T05:04:10;6.80;;;6.25;;
7255;SDS011;3669;49.200;9.242;2023-06-22T05:06:37;6.97;;;6.38;;
7255;SDS011;3669;49.200;9.242;2023-06-22T05:09:05;6.22;;;5.30;;
7255;SDS011;3669;49.200;9.242;2023-06-22T05:11:32;6.97;;;6.22;;
7255;SDS011;3669;49.200;9.242;2023-06-22T05:14:00;8.23;;;6.32;;
7255;SDS011;3669;49.200;9.242;2023-06-22T05:16:27;7.70;;;5.78;;
7255;SDS011;3669;49.200;9.242;2023-06-22T05:18:54;6.30;;;5.70;;
7255;SDS011;3669;49.200;9.242;2023-06-22T05:21:22;7.28;;;6.18;;
7255;SDS011;3669;49.200;9.242;2023-06-22T05:23:50;6.45;;;5.95;;
7255;SDS011;3669;49.200;9.242;2023-06-22T05:26:18;6.18;;;5.57;;
7255;SDS011;3669;49.200;9.242;2023-06-22T05:28:45;7.10;;;6.40;;
7255;SDS011;3669;49.200;9.242;2023-06-22T05:31:13;7.35;;;6.50;;
7255;SDS011;3669;49.200;9.242;2023-06-22T05:33:40;7.22;;;5.75;;
7255;SDS011;3669;49.200;9.242;2023-06-22T05:36:07;6.80;;;6.10;;
7255;SDS011;3669;49.200;9.242;2023-06-22T05:38:36;6.35;;;5.82;;
7255;SDS011;3669;49.200;9.242;2023-06-22T05:41:03;6.57;;;5.90;;
7255;SDS011;3669;49.200;9.242;2023-06-22T05:43:30;6.93;;;6.22;;
7255;SDS011;3669;49.200;9.242;2023-06-22T05:45:58;7.55;;;6.15;;
7255;SDS011;3669;49.200;9.242;2023-06-22T05:48:25;7.78;;;6.10;;
7255;SDS011;3669;49.200;9.242;2023-06-22T05:50:52;8.30;;;6.53;;
7255;SDS011;3669;49.200;9.242;2023-06-22T05:53:19;7.35;;;6.47;;
7255;SDS011;3669;49.200;9.242;2023-06-22T05:55:47;6.40;;;5.90;;
7255;SDS011;3669;49.200;9.242;2023-06-22T05:58:14;6.40;;;5.90;;
7255;SDS011;3669;49.200;9.242;2023-06-22T06:00:41;6.95;;;6.03;;
7255;SDS011;3669;49.200;9.242;2023-06-22T06:03:09;6.95;;;6.35;;
7255;SDS011;3669;49.200;9.242;2023-06-22T06:05:36;7.25;;;6.20;;
7255;SDS011;3669;49.200;9.242;2023-06-22T06:08:04;6.55;;;5.95;;
7255;SDS011;3669;49.200;9.242;2023-06-22T06:10:32;6.40;;;5.75;;
7255;SDS011;3669;49.200;9.242;2023-06-22T06:12:59;7.10;;;6.20;;
7255;SDS011;3669;49.200;9.242;2023-06-22T06:15:31;7.78;;;5.93;;
7255;SDS011;3669;49.200;9.242;2023-06-22T06:17:58;7.10;;;6.13;;
7255;SDS011;3669;49.200;9.242;2023-06-22T06:20:25;14.63;;;13.70;;
7255;SDS011;3669;49.200;9.242;2023-06-22T06:22:56;7.28;;;6.57;;
7255;SDS011;3669;49.200;9.242;2023-06-22T06:25:23;7.85;;;6.13;;
7255;SDS011;3669;49.200;9.242;2023-06-22T06:27:51;7.10;;;6.40;;
7255;SDS011;3669;49.200;9.242;2023-06-22T06:30:20;6.90;;;6.30;;
7255;SDS011;3669;49.200;9.242;2023-06-22T06:32:48;6.20;;;5.70;;
7255;SDS011;3669;49.200;9.242;2023-06-22T06:35:15;7.38;;;5.65;;
7255;SDS011;3669;49.200;9.242;2023-06-22T06:37:43;7.88;;;6.15;;
7255;SDS011;3669;49.200;9.242;2023-06-22T06:40:11;6.43;;;5.93;;
7255;SDS011;3669;49.200;9.242;2023-06-22T06:42:39;6.63;;;5.97;;
7255;SDS011;3669;49.200;9.242;2023-06-22T06:45:07;7.32;;;6.10;;
7255;SDS011;3669;49.200;9.242;2023-06-22T06:47:34;6.50;;;5.60;;
7255;SDS011;3669;49.200;9.242;2023-06-22T06:50:02;6.85;;;6.03;;
7255;SDS011;3669;49.200;9.242;2023-06-22T06:52:29;6.45;;;5.82;;
7255;SDS011;3669;49.200;9.242;2023-06-22T06:54:56;6.82;;;5.85;;
7255;SDS011;3669;49.200;9.242;2023-06-22T06:57:23;13.68;;;12.60;;
7255;SDS011;3669;49.200;9.242;2023-06-22T06:59:55;6.15;;;5.65;;
7255;SDS011;3669;49.200;9.242;2023-06-22T07:02:22;6.47;;;5.88;;
7255;SDS011;3669;49.200;9.242;2023-06-22T07:04:49;6.20;;;5.63;;
7255;SDS011;3669;49.200;9.242;2023-06-22T07:07:16;6.30;;;5.70;;
7255;SDS011;3669;49.200;9.242;2023-06-22T07:09:43;14.68;;;13.60;;
7255;SDS011;3669;49.200;9.242;2023-06-22T07:12:10;11.27;;;10.48;;
7255;SDS011;3669;49.200;9.242;2023-06-22T07:14:37;19.27;;;18.17;;
7255;SDS011;3669;49.200;9.242;2023-06-22T07:17:04;19.75;;;18.67;;
7255;SDS011;3669;49.200;9.242;2023-06-22T07:19:32;17.83;;;16.88;;
7255;SDS011;3669;49.200;9.242;2023-06-22T07:21:59;8.88;;;8.25;;
7255;SDS011;3669;49.200;9.242;2023-06-22T07:24:26;6.82;;;6.15;;
7255;SDS011;3669;49.200;9.242;2023-06-22T07:26:53;5.88;;;4.93;;
7255;SDS011;3669;49.200;9.242;2023-06-22T07:29:20;5.47;;;4.97;;
7255;SDS011;3669;49.200;9.242;2023-06-22T07:31:48;6.35;;;5.32;;
7255;SDS011;3669;49.200;9.242;2023-06-22T07:34:15;5.57;;;5.03;;
7255;SDS011;3669;49.200;9.242;2023-06-22T07:36:43;5.55;;;5.10;;
7255;SDS011;3669;49.200;9.242;2023-06-22T07:39:10;5.25;;;4.75;;
7255;SDS011;3669;49.200;9.242;2023-06-22T07:41:38;6.10;;;5.50;;
7255;SDS011;3669;49.200;9.242;2023-06-22T07:44:09;6.95;;;4.97;;
7255;SDS011;3669;49.200;9.242;2023-06-22T07:46:37;5.28;;;4.68;;
7255;SDS011;3669;49.200;9.242;2023-06-22T07:49:04;5.30;;;4.88;;
7255;SDS011;3669;49.200;9.242;2023-06-22T07:51:31;5.32;;;4.82;;
7255;SDS011;3669;49.200;9.242;2023-06-22T07:53:58;5.70;;;5.00;;
7255;SDS011;3669;49.200;9.242;2023-06-22T07:56:25;5.88;;;5.07;;
7255;SDS011;3669;49.200;9.242;2023-06-22T07:58:52;5.93;;;5.22;;
7255;SDS011;3669;49.200;9.242;2023-06-22T08:01:19;5.72;;;4.90;;
7255;SDS011;3669;49.200;9.242;2023-06-22T08:03:50;5.65;;;5.00;;
7255;SDS011;3669;49.200;9.242;2023-06-22T08:06:17;5.18;;;4.47;;
7255;SDS011;3669;49.200;9.242;2023-06-22T08:08:44;6.70;;;4.82;;
7255;SDS011;3669;49.200;9.242;2023-06-22T08:11:13;5.40;;;4.90;;
7255;SDS011;3669;49.200;9.242;2023-06-22T08:13:40;5.45;;;4.95;;
7255;SDS011;3669;49.200;9.242;2023-06-22T08:16:07;6.95;;;5.13;;
7255;SDS011;3669;49.200;9.242;2023-06-22T08:18:34;7.13;;;5.53;;
7255;SDS011;3669;49.200;9.242;2023-06-22T08:21:02;5.43;;;4.85;;
7255;SDS011;3669;49.200;9.242;2023-06-22T08:23:29;6.25;;;5.32;;
7255;SDS011;3669;49.200;9.242;2023-06-22T08:25:56;5.25;;;4.75;;
7255;SDS011;3669;49.200;9.242;2023-06-22T08:28:23;5.80;;;5.00;;
7255;SDS011;3669;49.200;9.242;2023-06-22T08:30:50;6.10;;;5.15;;
7255;SDS011;3669;49.200;9.242;2023-06-22T08:33:17;7.80;;;4.93;;
7255;SDS011;3669;49.200;9.242;2023-06-22T08:35:44;5.38;;;4.88;;
7255;SDS011;3669;49.200;9.242;2023-06-22T08:38:11;5.38;;;4.88;;
7255;SDS011;3669;49.200;9.242;2023-06-22T08:40:41;5.80;;;5.18;;
7255;SDS011;3669;49.200;9.242;2023-06-22T08:43:08;5.25;;;4.75;;
7255;SDS011;3669;49.200;9.242;2023-06-22T08:45:35;5.38;;;4.78;;
7255;SDS011;3669;49.200;9.242;2023-06-22T08:48:02;5.70;;;4.78;;
7255;SDS011;3669;49.200;9.242;2023-06-22T08:50:29;5.88;;;4.47;;
7255;SDS011;3669;49.200;9.242;2023-06-22T08:52:57;5.25;;;4.75;;
7255;SDS011;3669;49.200;9.242;2023-06-22T08:55:24;5.55;;;4.47;;
7255;SDS011;3669;49.200;9.242;2023-06-22T08:57:51;5.20;;;4.68;;
7255;SDS011;3669;49.200;9.242;2023-06-22T09:00:18;4.95;;;4.43;;
7255;SDS011;3669;49.200;9.242;2023-06-22T09:02:46;7.70;;;5.05;;
7255;SDS011;3669;49.200;9.242;2023-06-22T09:05:13;5.50;;;5.00;;
7255;SDS011;3669;49.200;9.242;2023-06-22T09:07:41;6.38;;;4.95;;
7255;SDS011;3669;49.200;9.242;2023-06-22T09:10:08;5.57;;;4.93;;
7255;SDS011;3669;49.200;9.242;2023-06-22T09:12:35;6.32;;;5.50;;
7255;SDS011;3669;49.200;9.242;2023-06-22T09:15:03;12.82;;;11.95;;
7255;SDS011;3669;49.200;9.242;2023-06-22T09:17:32;13.27;;;12.38;;
7255;SDS011;3669;49.200;9.242;2023-06-22T09:20:00;15.70;;;14.80;;
7255;SDS011;3669;49.200;9.242;2023-06-22T09:22:27;10.98;;;10.07;;
7255;SDS011;3669;49.200;9.242;2023-06-22T09:24:55;5.38;;;4.82;;
7255;SDS011;3669;49.200;9.242;2023-06-22T09:27:22;6.00;;;5.25;;
7255;SDS011;3669;49.200;9.242;2023-06-22T09:29:49;5.95;;;4.93;;
7255;SDS011;3669;49.200;9.242;2023-06-22T09:32:17;5.55;;;5.05;;
7255;SDS011;3669;49.200;9.242;2023-06-22T09:34:44;5.78;;;5.20;;
7255;SDS011;3669;49.200;9.242;2023-06-22T09:37:11;9.10;;;5.28;;
7255;SDS011;3669;49.200;9.242;2023-06-22T09:39:38;5.18;;;4.72;;
7255;SDS011;3669;49.200;9.242;2023-06-22T09:42:05;5.15;;;4.63;;
7255;SDS011;3669;49.200;9.242;2023-06-22T09:44:32;7.75;;;5.43;;
7255;SDS011;3669;49.200;9.242;2023-06-22T09:46:59;5.70;;;5.10;;
7255;SDS011;3669;49.200;9.242;2023-06-22T09:49:26;5.43;;;4.93;;
7255;SDS011;3669;49.200;9.242;2023-06-22T09:51:53;5.32;;;4.82;;
7255;SDS011;3669;49.200;9.242;2023-06-22T09:54:20;6.47;;;5.13;;
7255;SDS011;3669;49.200;9.242;2023-06-22T09:56:47;6.00;;;5.40;;
7255;SDS011;3669;49.200;9.242;2023-06-22T09:59:14;5.93;;;5.05;;
7255;SDS011;3669;49.200;9.242;2023-06-22T10:01:42;8.65;;;5.60;;
7255;SDS011;3669;49.200;9.242;2023-06-22T10:04:09;6.40;;;5.38;;
7255;SDS011;3669;49.200;9.242;2023-06-22T10:06:36;6.10;;;5.43;;
7255;SDS011;3669;49.200;9.242;2023-06-22T10:09:07;6.05;;;5.45;;
7255;SDS011;3669;49.200;9.242;2023-06-22T10:11:35;5.20;;;4.70;;
7255;SDS011;3669;49.200;9.242;2023-06-22T10:14:02;6.30;;;4.88;;
7255;SDS011;3669;49.200;9.242;2023-06-22T10:16:33;5.22;;;4.70;;
7255;SDS011;3669;49.200;9.242;2023-06-22T10:19:01;6.57;;;5.28;;
7255;SDS011;3669;49.200;9.242;2023-06-22T10:21:28;5.93;;;5.35;;
7255;SDS011;3669;49.200;9.242;2023-06-22T10:23:55;6.10;;;5.50;;
7255;SDS011;3669;49.200;9.242;2023-06-22T10:26:22;6.18;;;5.50;;
7255;SDS011;3669;49.200;9.242;2023-06-22T10:28:50;6.50;;;5.22;;
7255;SDS011;3669;49.200;9.242;2023-06-22T10:31:18;5.40;;;4.90;;
7255;SDS011;3669;49.200;9.242;2023-06-22T10:33:45;5.38;;;4.88;;
7255;SDS011;3669;49.200;9.242;2023-06-22T10:36:12;6.05;;;5.25;;
7255;SDS011;3669;49.200;9.242;2023-06-22T10:38:39;5.78;;;4.95;;
7255;SDS011;3669;49.200;9.242;2023-06-22T10:41:06;5.68;;;5.18;;
7255;SDS011;3669;49.200;9.242;2023-06-22T10:43:33;6.45;;;5.20;;
7255;SDS011;3669;49.200;9.242;2023-06-22T10:46:00;6.90;;;5.78;;
7255;SDS011;3669;49.200;9.242;2023-06-22T10:48:27;7.50;;;5.45;;
7255;SDS011;3669;49.200;9.242;2023-06-22T10:50:54;7.70;;;5.32;;
7255;SDS011;3669;49.200;9.242;2023-06-22T10:53:21;5.85;;;5.18;;
7255;SDS011;3669;49.200;9.242;2023-06-22T10:55:48;6.03;;;4.88;;
7255;SDS011;3669;49.200;9.242;2023-06-22T10:58:18;7.07;;;5.75;;
7255;SDS011;3669;49.200;9.242;2023-06-22T11:00:45;6.43;;;5.30;;
7255;SDS011;3669;49.200;9.242;2023-06-22T11:03:12;6.05;;;5.25;;
7255;SDS011;3669;49.200;9.242;2023-06-22T11:05:39;7.97;;;5.72;;
7255;SDS011;3669;49.200;9.242;2023-06-22T11:08:07;5.95;;;5.25;;
7255;SDS011;3669;49.200;9.242;2023-06-22T11:10:34;5.63;;;5.07;;
7255;SDS011;3669;49.200;9.242;2023-06-22T11:13:01;7.25;;;5.75;;
7255;SDS011;3669;49.200;9.242;2023-06-22T11:15:29;7.85;;;6.18;;
7255;SDS011;3669;49.200;9.242;2023-06-22T11:17:56;16.83;;;15.85;;
7255;SDS011;3669;49.200;9.242;2023-06-22T11:20:23;28.75;;;27.08;;
7255;SDS011;3669;49.200;9.242;2023-06-22T11:22:50;20.02;;;18.83;;
7255;SDS011;3669;49.200;9.242;2023-06-22T11:25:17;17.70;;;16.63;;
7255;SDS011;3669;49.200;9.242;2023-06-22T11:27:44;11.77;;;10.45;;
7255;SDS011;3669;49.200;9.242;2023-06-22T11:30:11;6.40;;;5.85;;
7255;SDS011;3669;49.200;9.242;2023-06-22T11:32:38;8.68;;;5.35;;
7255;SDS011;3669;49.200;9.242;2023-06-22T11:35:05;8.63;;;5.40;;
7255;SDS011;3669;49.200;9.242;2023-06-22T11:37:32;6.82;;;5.18;;
7255;SDS011;3669;49.200;9.242;2023-06-22T11:39:59;6.47;;;5.20;;
7255;SDS011;3669;49.200;9.242;2023-06-22T11:42:28;6.32;;;5.18;;
7255;SDS011;3669;49.200;9.242;2023-06-22T11:44:55;7.28;;;5.82;;
7255;SDS011;3669;49.200;9.242;2023-06-22T11:47:22;8.43;;;5.38;;
7255;SDS011;3669;49.200;9.242;2023-06-22T11:49:49;6.30;;;5.30;;
7255;SDS011;3669;49.200;9.242;2023-06-22T11:52:16;9.85;;;9.15;;
7255;SDS011;3669;49.200;9.242;2023-06-22T11:54:46;6.82;;;5.03;;
7255;SDS011;3669;49.200;9.242;2023-06-22T11:57:14;6.43;;;5.18;;
7255;SDS011;3669;49.200;9.242;2023-06-22T11:59:41;6.13;;;5.28;;
7255;SDS011;3669;49.200;9.242;2023-06-22T12:02:07;5.97;;;5.38;;
7255;SDS011;3669;49.200;9.242;2023-06-22T12:04:35;5.72;;;5.13;;
7255;SDS011;3669;49.200;9.242;2023-06-22T12:07:02;8.18;;;5.35;;
7255;SDS011;3669;49.200;9.242;2023-06-22T12:09:29;6.20;;;5.40;;
7255;SDS011;3669;49.200;9.242;2023-06-22T12:11:56;6.65;;;5.60;;
7255;SDS011;3669;49.200;9.242;2023-06-22T12:15:35;14.13;;;13.30;;
7255;SDS011;3669;49.200;9.242;2023-06-22T12:18:02;8.60;;;7.85;;
7255;SDS011;3669;49.200;9.242;2023-06-22T12:20:30;11.50;;;10.75;;
7255;SDS011;3669;49.200;9.242;2023-06-22T12:22:57;6.70;;;5.60;;
7255;SDS011;3669;49.200;9.242;2023-06-22T12:25:24;6.25;;;5.65;;
7255;SDS011;3669;49.200;9.242;2023-06-22T12:27:51;5.68;;;5.03;;
7255;SDS011;3669;49.200;9.242;2023-06-22T12:30:19;7.57;;;5.57;;
7255;SDS011;3669;49.200;9.242;2023-06-22T12:32:46;6.32;;;5.72;;
7255;SDS011;3669;49.200;9.242;2023-06-22T12:35:45;16.55;;;15.65;;
7255;SDS011;3669;49.200;9.242;2023-06-22T12:38:14;18.88;;;17.77;;
7255;SDS011;3669;49.200;9.242;2023-06-22T12:40:41;11.90;;;10.95;;
7255;SDS011;3669;49.200;9.242;2023-06-22T12:43:08;8.15;;;7.20;;
7255;SDS011;3669;49.200;9.242;2023-06-22T12:45:34;5.80;;;5.18;;
7255;SDS011;3669;49.200;9.242;2023-06-22T12:48:02;7.70;;;5.55;;
7255;SDS011;3669;49.200;9.242;2023-06-22T12:50:29;7.28;;;5.68;;
7255;SDS011;3669;49.200;9.242;2023-06-22T12:52:56;6.20;;;5.60;;
7255;SDS011;3669;49.200;9.242;2023-06-22T12:55:23;7.57;;;5.30;;
7255;SDS011;3669;49.200;9.242;2023-06-22T12:57:50;6.35;;;5.75;;
7255;SDS011;3669;49.200;9.242;2023-06-22T13:00:18;7.05;;;5.35;;
7255;SDS011;3669;49.200;9.242;2023-06-22T13:02:45;7.97;;;5.28;;
7255;SDS011;3669;49.200;9.242;2023-06-22T13:05:12;7.25;;;5.97;;
7255;SDS011;3669;49.200;9.242;2023-06-22T13:07:39;6.78;;;5.88;;
7255;SDS011;3669;49.200;9.242;2023-06-22T13:10:08;7.45;;;5.93;;
7255;SDS011;3669;49.200;9.242;2023-06-22T13:12:35;7.03;;;5.85;;
7255;SDS011;3669;49.200;9.242;2023-06-22T13:15:02;5.93;;;5.35;;
7255;SDS011;3669;49.200;9.242;2023-06-22T13:17:29;6.18;;;5.38;;
7255;SDS011;3669;49.200;9.242;2023-06-22T13:19:56;5.68;;;4.97;;
7255;SDS011;3669;49.200;9.242;2023-06-22T13:24:55;6.30;;;5.07;;
7255;SDS011;3669;49.200;9.242;2023-06-22T13:27:22;6.57;;;5.43;;
7255;SDS011;3669;49.200;9.242;2023-06-22T13:29:49;7.93;;;4.93;;
7255;SDS011;3669;49.200;9.242;2023-06-22T13:32:16;6.35;;;4.85;;
7255;SDS011;3669;49.200;9.242;2023-06-22T13:34:43;7.25;;;4.88;;
7255;SDS011;3669;49.200;9.242;2023-06-22T13:37:10;7.10;;;5.05;;
7255;SDS011;3669;49.200;9.242;2023-06-22T13:39:37;6.20;;;4.28;;
7255;SDS011;3669;49.200;9.242;2023-06-22T13:42:04;10.50;;;5.57;;
7255;SDS011;3669;49.200;9.242;2023-06-22T13:44:31;6.07;;;4.50;;
7255;SDS011;3669;49.200;9.242;2023-06-22T13:46:58;7.15;;;4.70;;
7255;SDS011;3669;49.200;9.242;2023-06-22T13:49:25;5.53;;;4.47;;
7255;SDS011;3669;49.200;9.242;2023-06-22T13:51:53;8.40;;;5.20;;
7255;SDS011;3669;49.200;9.242;2023-06-22T13:54:20;9.38;;;5.25;;
7255;SDS011;3669;49.200;9.242;2023-06-22T13:56:47;5.38;;;4.50;;
7255;SDS011;3669;49.200;9.242;2023-06-22T13:59:14;8.43;;;4.93;;
7255;SDS011;3669;49.200;9.242;2023-06-22T14:01:41;8.82;;;4.75;;
7255;SDS011;3669;49.200;9.242;2023-06-22T14:04:09;9.20;;;4.90;;
7255;SDS011;3669;49.200;9.242;2023-06-22T14:06:37;7.72;;;5.50;;
7255;SDS011;3669;49.200;9.242;2023-06-22T14:09:04;6.45;;;4.90;;
7255;SDS011;3669;49.200;9.242;2023-06-22T14:11:32;9.02;;;4.97;;
7255;SDS011;3669;49.200;9.242;2023-06-22T14:13:59;6.03;;;5.22;;
7255;SDS011;3669;49.200;9.242;2023-06-22T14:16:26;8.13;;;5.40;;
7255;SDS011;3669;49.200;9.242;2023-06-22T14:18:53;7.68;;;5.10;;
7255;SDS011;3669;49.200;9.242;2023-06-22T14:21:21;7.32;;;5.20;;
7255;SDS011;3669;49.200;9.242;2023-06-22T14:23:48;7.28;;;4.90;;
7255;SDS011;3669;49.200;9.242;2023-06-22T14:26:15;6.53;;;4.90;;
7255;SDS011;3669;49.200;9.242;2023-06-22T14:28:46;7.05;;;4.80;;
7255;SDS011;3669;49.200;9.242;2023-06-22T14:31:14;5.43;;;4.68;;
7255;SDS011;3669;49.200;9.242;2023-06-22T14:33:45;7.03;;;4.95;;
7255;SDS011;3669;49.200;9.242;2023-06-22T14:36:13;9.30;;;5.05;;
7255;SDS011;3669;49.200;9.242;2023-06-22T14:38:40;7.32;;;5.20;;
7255;SDS011;3669;49.200;9.242;2023-06-22T14:41:07;7.18;;;5.32;;
7255;SDS011;3669;49.200;9.242;2023-06-22T14:43:34;6.70;;;4.97;;
7255;SDS011;3669;49.200;9.242;2023-06-22T14:46:01;7.05;;;5.13;;
7255;SDS011;3669;49.200;9.242;2023-06-22T14:48:29;7.05;;;5.47;;
7255;SDS011;3669;49.200;9.242;2023-06-22T14:50:56;6.38;;;5.10;;
7255;SDS011;3669;49.200;9.242;2023-06-22T14:53:23;7.72;;;5.40;;
7255;SDS011;3669;49.200;9.242;2023-06-22T14:55:51;6.20;;;4.78;;
7255;SDS011;3669;49.200;9.242;2023-06-22T14:58:20;7.10;;;5.68;;
7255;SDS011;3669;49.200;9.242;2023-06-22T15:00:47;10.82;;;9.77;;
7255;SDS011;3669;49.200;9.242;2023-06-22T15:03:15;13.95;;;12.93;;
7255;SDS011;3669;49.200;9.242;2023-06-22T15:05:47;8.65;;;6.78;;
7255;SDS011;3669;49.200;9.242;2023-06-22T15:08:14;11.55;;;10.48;;
7255;SDS011;3669;49.200;9.242;2023-06-22T15:10:41;21.50;;;20.13;;
7255;SDS011;3669;49.200;9.242;2023-06-22T15:13:08;24.73;;;22.98;;
7255;SDS011;3669;49.200;9.242;2023-06-22T15:15:35;22.02;;;20.58;;
7255;SDS011;3669;49.200;9.242;2023-06-22T15:18:02;15.48;;;14.45;;
7255;SDS011;3669;49.200;9.242;2023-06-22T15:20:29;16.60;;;15.32;;
7255;SDS011;3669;49.200;9.242;2023-06-22T15:22:57;11.18;;;10.10;;
7255;SDS011;3669;49.200;9.242;2023-06-22T15:25:24;8.10;;;6.93;;